createdAt,value
2023-05-18T00:00:35.524Z,7.68
2023-05-18T00:03:20.022Z,7.69
2023-05-18T00:05:49.591Z,7.70
2023-05-18T00:08:17.697Z,7.67
2023-05-18T00:10:45.984Z,7.64
2023-05-18T00:13:14.069Z,7.64
2023-05-18T00:15:44.160Z,7.65
2023-05-18T00:18:12.317Z,7.61
2023-05-18T00:20:40.469Z,7.60
2023-05-18T00:23:10.822Z,7.57
2023-05-18T00:25:38.900Z,7.55
2023-05-18T00:28:07.032Z,7.52
2023-05-18T00:30:35.111Z,7.46
2023-05-18T00:33:03.204Z,7.47
2023-05-18T00:35:31.670Z,7.43
2023-05-18T00:37:59.971Z,7.39
2023-05-18T00:40:29.434Z,7.32
2023-05-18T00:42:57.689Z,7.27
2023-05-18T00:45:26.848Z,7.20
2023-05-18T00:47:56.661Z,7.17
2023-05-18T00:50:25.196Z,7.12
2023-05-18T00:52:53.374Z,7.07
2023-05-18T00:55:22.391Z,7.04
2023-05-18T00:57:50.600Z,6.99
2023-05-18T01:00:20.823Z,6.98
2023-05-18T01:02:51.322Z,6.98
2023-05-18T01:05:22.351Z,6.98
2023-05-18T01:07:50.607Z,6.96
2023-05-18T01:10:20.329Z,6.92
2023-05-18T01:13:04.162Z,6.90
2023-05-18T01:15:39.692Z,6.90
2023-05-18T01:18:25.678Z,6.92
2023-05-18T01:21:00.660Z,6.92
2023-05-18T01:23:59.090Z,6.90
2023-05-18T01:26:37.657Z,6.89
2023-05-18T01:29:11.505Z,6.88
2023-05-18T01:31:40.202Z,6.87
2023-05-18T01:34:08.713Z,6.85
2023-05-18T01:36:37.676Z,6.86
2023-05-18T01:39:05.833Z,6.84
2023-05-18T01:41:39.409Z,6.83
2023-05-18T01:44:19.324Z,6.79
2023-05-18T01:47:12.561Z,6.80
2023-05-18T01:49:52.198Z,6.78
2023-05-18T01:52:43.548Z,6.76
2023-05-18T01:55:14.566Z,6.71
2023-05-18T01:57:45.129Z,6.68
2023-05-18T02:00:19.449Z,6.67
2023-05-18T02:02:50.699Z,6.65
2023-05-18T02:05:19.834Z,6.60
2023-05-18T02:07:49.576Z,6.59
2023-05-18T02:10:17.995Z,6.57
2023-05-18T02:12:49.278Z,6.54
2023-05-18T02:15:18.071Z,6.50
2023-05-18T02:17:46.608Z,6.46
2023-05-18T02:20:18.581Z,6.42
2023-05-18T02:22:46.897Z,6.35
2023-05-18T02:25:15.099Z,6.31
2023-05-18T02:27:43.329Z,6.27
2023-05-18T02:30:14.430Z,6.22
2023-05-18T02:32:47.205Z,6.16
2023-05-18T02:35:17.622Z,6.12
2023-05-18T02:37:47.548Z,6.06
2023-05-18T02:40:19.128Z,6.01
2023-05-18T02:42:47.165Z,5.97
2023-05-18T02:45:16.088Z,5.92
2023-05-18T02:47:44.911Z,5.87
2023-05-18T02:50:13.184Z,5.85
2023-05-18T02:52:41.882Z,5.82
2023-05-18T02:55:10.958Z,5.80
2023-05-18T02:57:57.066Z,5.78
2023-05-18T03:00:32.060Z,5.75
2023-05-18T03:03:01.050Z,5.75
2023-05-18T03:05:29.885Z,5.75
2023-05-18T03:07:58.461Z,5.75
2023-05-18T03:10:26.601Z,5.75
2023-05-18T03:12:54.680Z,5.75
2023-05-18T03:15:23.401Z,5.75
2023-05-18T03:17:51.958Z,5.76
2023-05-18T03:20:21.860Z,5.78
2023-05-18T03:22:50.072Z,5.83
2023-05-18T03:25:19.552Z,5.87
2023-05-18T03:27:48.360Z,5.91
2023-05-18T03:30:16.588Z,5.96
2023-05-18T03:32:47.782Z,6.01
2023-05-18T03:35:16.401Z,6.07
2023-05-18T03:37:45.724Z,6.12
2023-05-18T03:40:15.684Z,6.18
2023-05-18T03:42:44.636Z,6.25
2023-05-18T03:45:13.802Z,6.32
2023-05-18T03:47:42.798Z,6.38
2023-05-18T03:50:11.188Z,6.44
2023-05-18T03:52:40.169Z,6.50
2023-05-18T03:55:09.014Z,6.56
2023-05-18T03:57:37.402Z,6.61
2023-05-18T04:04:54.047Z,6.74
2023-05-18T04:07:22.570Z,6.80
2023-05-18T04:09:52.224Z,6.87
2023-05-18T04:12:21.594Z,6.94
2023-05-18T04:14:50.110Z,6.99
2023-05-18T04:17:22.386Z,7.03
2023-05-18T04:19:50.814Z,7.04
2023-05-18T04:22:18.852Z,7.13
2023-05-18T04:24:47.660Z,7.19
2023-05-18T04:27:15.902Z,7.25
2023-05-18T04:29:44.312Z,7.32
2023-05-18T04:34:37.972Z,7.48
2023-05-18T04:37:06.909Z,7.47
2023-05-18T04:39:35.289Z,7.47
2023-05-18T04:42:08.609Z,7.48
2023-05-18T04:44:38.593Z,7.53
2023-05-18T04:47:08.651Z,7.63
2023-05-18T04:49:38.694Z,7.76
2023-05-18T04:52:09.101Z,7.88
2023-05-18T04:54:41.089Z,7.90
2023-05-18T04:57:09.558Z,7.95
2023-05-18T04:59:37.578Z,7.86
2023-05-18T05:02:06.384Z,7.83
2023-05-18T05:04:34.754Z,7.83
2023-05-18T05:07:04.071Z,7.88
2023-05-18T05:09:32.299Z,7.77
2023-05-18T05:12:00.421Z,7.77
2023-05-18T05:14:28.414Z,7.82
2023-05-18T05:16:56.384Z,7.87
2023-05-18T05:19:24.717Z,7.93
2023-05-18T05:21:53.083Z,8.06
2023-05-18T05:24:21.421Z,7.90
2023-05-18T05:26:49.700Z,7.92
2023-05-18T05:29:20.020Z,8.03
2023-05-18T05:31:48.310Z,8.12
2023-05-18T05:34:16.639Z,8.12
2023-05-18T05:36:44.673Z,8.13
2023-05-18T05:39:13.667Z,8.23
2023-05-18T05:41:41.928Z,8.42
2023-05-18T05:44:10.070Z,8.44
2023-05-18T05:46:38.244Z,8.43
2023-05-18T05:49:06.731Z,8.52
2023-05-18T05:51:35.875Z,8.45
2023-05-18T05:54:04.345Z,8.50
2023-05-18T05:56:32.561Z,8.66
2023-05-18T05:59:01.042Z,8.80
2023-05-18T06:01:29.647Z,8.84
2023-05-18T06:03:58.162Z,9.04
2023-05-18T06:06:26.144Z,9.03
2023-05-18T06:08:54.209Z,9.11
2023-05-18T06:11:22.857Z,9.22
2023-05-18T06:13:52.462Z,9.30
2023-05-18T06:16:20.683Z,9.25
2023-05-18T06:18:49.196Z,9.24
2023-05-18T06:21:17.615Z,9.18
2023-05-18T06:23:46.377Z,9.18
2023-05-18T06:26:53.803Z,9.48
2023-05-18T06:29:50.928Z,9.66
2023-05-18T06:32:37.560Z,9.82
2023-05-18T06:35:07.386Z,9.89
2023-05-18T06:37:36.910Z,9.96
2023-05-18T06:40:07.373Z,10.04
2023-05-18T06:42:35.617Z,10.19
2023-05-18T06:45:23.334Z,10.35
2023-05-18T06:47:54.661Z,10.24
2023-05-18T06:50:23.179Z,10.27
2023-05-18T06:52:51.614Z,10.62
2023-05-18T06:55:20.344Z,10.71
2023-05-18T06:57:48.492Z,10.81
2023-05-18T07:00:17.209Z,10.77
2023-05-18T07:02:45.909Z,11.06
2023-05-18T07:05:15.114Z,11.22
2023-05-18T07:07:43.267Z,11.10
2023-05-18T07:10:11.667Z,11.13
2023-05-18T07:12:39.917Z,11.09
2023-05-18T07:15:08.238Z,11.19
2023-05-18T07:17:36.561Z,11.14
2023-05-18T07:20:09.021Z,10.97
2023-05-18T07:22:37.051Z,10.93
2023-05-18T07:25:05.723Z,11.05
2023-05-18T07:27:34.838Z,10.85
2023-05-18T07:30:03.056Z,10.69
2023-05-18T07:32:31.120Z,10.83
2023-05-18T07:34:59.515Z,11.10
2023-05-18T07:37:27.439Z,11.16
2023-05-18T07:39:55.582Z,11.28
2023-05-18T07:42:23.669Z,11.24
2023-05-18T07:44:52.339Z,10.91
2023-05-18T07:47:21.834Z,10.93
2023-05-18T07:49:49.938Z,11.33
2023-05-18T07:52:18.031Z,11.56
2023-05-18T07:54:46.058Z,11.61
2023-05-18T07:57:14.513Z,11.79
2023-05-18T07:59:42.867Z,11.62
2023-05-18T08:02:11.354Z,11.52
2023-05-18T08:04:39.572Z,11.64
2023-05-18T08:07:09.144Z,11.80
2023-05-18T08:09:37.412Z,11.58
2023-05-18T08:12:06.301Z,11.78
2023-05-18T08:14:34.334Z,11.45
2023-05-18T08:17:04.920Z,11.82
2023-05-18T08:19:33.063Z,11.95
2023-05-18T08:22:01.169Z,11.94
2023-05-18T08:24:29.184Z,12.09
2023-05-18T08:26:57.585Z,12.19
2023-05-18T08:29:25.827Z,12.04
2023-05-18T08:31:54.009Z,12.16
2023-05-18T08:34:22.710Z,12.17
2023-05-18T08:36:50.806Z,11.97
2023-05-18T08:39:19.415Z,12.11
2023-05-18T08:42:03.934Z,11.97
2023-05-18T08:44:41.116Z,11.85
2023-05-18T08:47:11.519Z,11.84
2023-05-18T08:49:42.383Z,12.10
2023-05-18T08:52:18.005Z,12.16
2023-05-18T08:54:48.730Z,12.31
2023-05-18T08:57:18.510Z,12.59
2023-05-18T08:59:49.433Z,12.64
2023-05-18T09:02:18.633Z,12.76
2023-05-18T09:04:48.322Z,13.03
2023-05-18T09:07:18.416Z,12.99
2023-05-18T09:09:47.779Z,13.24
2023-05-18T09:12:20.181Z,13.38
2023-05-18T09:14:49.250Z,13.50
2023-05-18T09:17:17.385Z,13.29
2023-05-18T09:19:46.288Z,13.63
2023-05-18T09:22:15.332Z,13.92
2023-05-18T09:24:43.985Z,13.72
2023-05-18T09:27:12.197Z,13.67
2023-05-18T09:29:54.350Z,13.74
2023-05-18T09:32:23.136Z,13.89
2023-05-18T09:34:51.430Z,14.17
2023-05-18T09:37:21.421Z,14.34
2023-05-18T09:40:04.844Z,14.41
2023-05-18T09:42:39.846Z,13.94
2023-05-18T09:45:24.268Z,14.22
2023-05-18T09:47:53.714Z,14.58
2023-05-18T09:50:22.754Z,14.24
2023-05-18T09:52:50.938Z,13.92
2023-05-18T09:55:20.531Z,14.04
2023-05-18T09:57:50.763Z,13.97
2023-05-18T10:00:20.716Z,13.89
2023-05-18T10:02:52.963Z,14.23
2023-05-18T10:05:35.538Z,14.11
2023-05-18T10:08:04.336Z,13.68
2023-05-18T10:10:32.649Z,13.76
2023-05-18T10:13:01.641Z,13.77
2023-05-18T10:15:30.199Z,13.32
2023-05-18T10:18:01.313Z,13.49
2023-05-18T10:20:29.767Z,13.68
2023-05-18T10:23:00.943Z,13.67
2023-05-18T10:25:31.003Z,13.59
2023-05-18T10:28:06.398Z,13.93
2023-05-18T10:30:35.366Z,14.19
2023-05-18T10:33:11.268Z,14.12
2023-05-18T10:35:45.574Z,14.00
2023-05-18T10:38:15.196Z,13.94
2023-05-18T10:40:45.102Z,14.10
2023-05-18T10:43:14.769Z,14.55
2023-05-18T10:45:47.310Z,14.18
2023-05-18T10:48:16.432Z,13.94
2023-05-18T10:50:44.603Z,14.10
2023-05-18T10:53:13.086Z,13.94
2023-05-18T10:55:41.186Z,13.63
2023-05-18T10:58:14.336Z,13.84
2023-05-18T11:04:40.838Z,14.13
2023-05-18T11:07:13.675Z,14.43
2023-05-18T11:09:43.127Z,14.62
2023-05-18T11:12:13.200Z,14.62
2023-05-18T11:14:53.005Z,14.52
2023-05-18T11:17:26.786Z,14.66
2023-05-18T11:20:08.014Z,14.89
2023-05-18T11:22:59.190Z,14.96
2023-05-18T11:25:27.226Z,14.71
2023-05-18T11:28:02.348Z,14.23
2023-05-18T11:30:45.164Z,14.25
2023-05-18T11:33:16.064Z,14.11
2023-05-18T11:36:01.071Z,14.21
2023-05-18T11:38:55.291Z,14.16
2023-05-18T11:41:35.775Z,14.10
2023-05-18T11:44:14.898Z,14.44
2023-05-18T11:46:53.550Z,14.85
2023-05-18T11:49:25.072Z,15.00
2023-05-18T11:52:02.709Z,14.80
2023-05-18T11:54:44.077Z,14.88
2023-05-18T11:57:15.280Z,14.74
2023-05-18T11:59:45.799Z,14.88
2023-05-18T12:02:21.718Z,14.70
2023-05-18T12:04:53.170Z,14.64
2023-05-18T12:07:22.694Z,14.64
2023-05-18T12:09:51.283Z,14.78
2023-05-18T12:12:20.410Z,15.03
2023-05-18T12:14:55.658Z,15.12
2023-05-18T12:17:24.721Z,14.93
2023-05-18T12:19:53.302Z,14.65
2023-05-18T12:22:21.505Z,14.31
2023-05-18T12:24:51.547Z,14.30
2023-05-18T12:27:23.030Z,14.12
2023-05-18T12:29:51.424Z,14.20
2023-05-18T12:32:19.539Z,14.35
2023-05-18T12:34:47.522Z,14.36
2023-05-18T12:37:15.861Z,14.13
2023-05-18T12:39:44.028Z,14.31
2023-05-18T12:42:14.427Z,14.53
2023-05-18T12:44:44.864Z,14.62
2023-05-18T12:47:14.113Z,14.73
2023-05-18T12:49:47.867Z,14.88
2023-05-18T12:52:16.814Z,15.10
2023-05-18T12:54:58.507Z,15.16
2023-05-18T12:57:31.266Z,15.11
2023-05-18T13:00:01.048Z,15.27
2023-05-18T13:02:51.788Z,15.02
2023-05-18T13:05:24.405Z,14.67
2023-05-18T13:07:56.094Z,14.37
2023-05-18T13:10:24.326Z,14.58
2023-05-18T13:12:52.804Z,14.62
2023-05-18T13:18:15.290Z,14.60
2023-05-18T13:20:50.854Z,14.35
2023-05-18T13:23:24.932Z,14.49
2023-05-18T13:25:53.090Z,14.57
2023-05-18T13:28:21.982Z,14.42
2023-05-18T13:30:50.677Z,14.47
2023-05-18T13:33:19.617Z,14.42
2023-05-18T13:35:49.849Z,14.24
2023-05-18T13:38:18.083Z,14.13
2023-05-18T13:40:47.013Z,14.06
2023-05-18T13:43:15.111Z,14.21
2023-05-18T13:45:43.662Z,14.38
2023-05-18T13:48:11.839Z,14.30
2023-05-18T13:50:40.163Z,14.29
2023-05-18T13:53:08.654Z,14.46
2023-05-18T13:55:37.508Z,14.59
2023-05-18T13:58:06.480Z,14.63
2023-05-18T14:00:34.950Z,14.46
2023-05-18T14:03:03.223Z,14.26
2023-05-18T14:05:31.375Z,14.34
2023-05-18T14:07:59.567Z,14.29
2023-05-18T14:10:27.610Z,13.92
2023-05-18T14:12:55.777Z,13.97
2023-05-18T14:15:24.017Z,13.97
2023-05-18T14:17:52.153Z,13.83
2023-05-18T14:20:20.292Z,13.82
2023-05-18T14:22:48.444Z,13.79
2023-05-18T14:25:17.053Z,13.49
2023-05-18T14:27:45.766Z,13.51
2023-05-18T14:30:14.298Z,13.57
2023-05-18T14:32:42.373Z,13.52
2023-05-18T14:35:10.541Z,13.47
2023-05-18T14:37:38.759Z,13.54
2023-05-18T14:40:07.877Z,13.68
2023-05-18T14:42:37.417Z,13.58
2023-05-18T14:45:06.067Z,13.53
2023-05-18T14:47:34.289Z,13.50
2023-05-18T14:50:02.632Z,13.48
2023-05-18T14:52:30.681Z,13.50
2023-05-18T14:54:58.752Z,13.44
2023-05-18T14:57:27.132Z,13.27
2023-05-18T14:59:55.196Z,13.17
2023-05-18T15:02:23.235Z,13.04
2023-05-18T15:04:51.360Z,13.00
2023-05-18T15:07:20.282Z,12.98
2023-05-18T15:09:48.492Z,12.93
2023-05-18T15:12:17.849Z,12.91
2023-05-18T15:14:45.901Z,12.95
2023-05-18T15:17:15.252Z,12.91
2023-05-18T15:20:09.523Z,12.91
2023-05-18T15:22:38.495Z,12.91
2023-05-18T15:25:07.613Z,12.89
2023-05-18T15:27:36.955Z,12.83
2023-05-18T15:30:11.558Z,12.84
2023-05-18T15:32:45.746Z,12.90
2023-05-18T15:35:16.201Z,12.96
2023-05-18T15:37:44.504Z,13.01
2023-05-18T15:40:12.557Z,12.96
2023-05-18T15:42:40.618Z,12.89
2023-05-18T15:45:09.207Z,12.72
2023-05-18T15:47:37.276Z,12.68
2023-05-18T15:50:06.477Z,12.62
2023-05-18T15:52:34.813Z,12.63
2023-05-18T15:55:02.860Z,12.66
2023-05-18T15:57:32.353Z,12.70
2023-05-18T16:00:00.440Z,12.76
2023-05-18T16:02:30.585Z,12.70
2023-05-18T16:04:59.632Z,12.67
2023-05-18T16:07:27.739Z,12.66
2023-05-18T16:09:56.075Z,12.74
2023-05-18T16:12:24.165Z,12.64
2023-05-18T16:14:52.182Z,12.61
2023-05-18T16:17:20.365Z,12.56
2023-05-18T16:19:48.436Z,12.54
2023-05-18T16:22:16.697Z,12.52
2023-05-18T16:24:45.133Z,12.53
2023-05-18T16:27:13.284Z,12.50
2023-05-18T16:29:43.213Z,12.47
2023-05-18T16:32:11.620Z,12.45
2023-05-18T16:34:39.676Z,12.43
2023-05-18T16:37:08.942Z,12.45
2023-05-18T16:39:37.124Z,12.39
2023-05-18T16:42:05.758Z,12.39
2023-05-18T16:44:35.839Z,12.36
2023-05-18T16:47:03.875Z,12.30
2023-05-18T16:49:32.934Z,12.28
2023-05-18T16:52:01.336Z,12.28
2023-05-18T16:54:29.361Z,12.28
2023-05-18T16:56:57.368Z,12.24
2023-05-18T16:59:25.656Z,12.18
2023-05-18T17:01:53.695Z,12.17
2023-05-18T17:04:21.857Z,12.11
2023-05-18T17:06:49.899Z,12.10
2023-05-18T17:09:20.568Z,12.07
2023-05-18T17:11:48.903Z,12.04
2023-05-18T17:14:18.562Z,12.02
2023-05-18T17:16:47.308Z,11.99
2023-05-18T17:19:15.336Z,11.94
2023-05-18T17:21:43.328Z,11.92
2023-05-18T17:24:11.302Z,11.91
2023-05-18T17:26:39.305Z,11.90
2023-05-18T17:29:07.450Z,11.90
2023-05-18T17:31:35.657Z,11.88
2023-05-18T17:34:03.822Z,11.85
2023-05-18T17:36:31.778Z,11.84
2023-05-18T17:38:59.761Z,11.80
2023-05-18T17:41:27.728Z,11.77
2023-05-18T17:43:55.757Z,11.74
2023-05-18T17:46:23.799Z,11.72
2023-05-18T17:49:17.335Z,11.71
2023-05-18T17:51:49.336Z,11.71
2023-05-18T17:54:17.344Z,11.70
2023-05-18T17:56:45.570Z,11.68
2023-05-18T17:59:13.622Z,11.66
2023-05-18T18:01:43.255Z,11.64
2023-05-18T18:04:11.386Z,11.61
2023-05-18T18:06:39.525Z,11.59
2023-05-18T18:09:07.674Z,11.56
2023-05-18T18:11:35.973Z,11.52
2023-05-18T18:14:04.142Z,11.50
2023-05-18T18:16:32.325Z,11.49
2023-05-18T18:19:00.623Z,11.48
2023-05-18T18:21:28.613Z,11.45
2023-05-18T18:23:56.692Z,11.44
2023-05-18T18:26:24.905Z,11.47
2023-05-18T18:28:53.018Z,11.48
2023-05-18T18:31:21.187Z,11.47
2023-05-18T18:33:52.037Z,11.45
2023-05-18T18:36:20.889Z,11.41
2023-05-18T18:38:48.918Z,11.34
2023-05-18T18:41:20.082Z,11.27
2023-05-18T18:43:47.982Z,11.23
2023-05-18T18:46:16.118Z,11.19
2023-05-18T18:48:47.660Z,11.15
2023-05-18T18:51:15.711Z,11.09
2023-05-18T18:53:43.718Z,11.06
2023-05-18T18:56:11.835Z,11.00
2023-05-18T18:58:39.936Z,10.93
2023-05-18T19:04:38.302Z,10.88
2023-05-18T19:07:06.327Z,10.83
2023-05-18T19:09:36.243Z,10.79
2023-05-18T19:12:04.824Z,10.74
2023-05-18T19:14:33.000Z,10.71
2023-05-18T19:17:01.078Z,10.68
2023-05-18T19:19:32.540Z,10.65
2023-05-18T19:22:00.805Z,10.59
2023-05-18T19:24:29.134Z,10.56
2023-05-18T19:26:57.273Z,10.54
2023-05-18T19:29:25.532Z,10.52
2023-05-18T19:31:55.288Z,10.49
2023-05-18T19:34:24.304Z,10.46
2023-05-18T19:36:52.696Z,10.45
2023-05-18T19:39:20.997Z,10.43
2023-05-18T19:41:49.080Z,10.41
2023-05-18T19:44:17.174Z,10.38
2023-05-18T19:46:45.544Z,10.33
2023-05-18T19:49:13.575Z,10.32
2023-05-18T19:51:41.532Z,10.31
2023-05-18T19:54:09.571Z,10.28
2023-05-18T19:56:37.550Z,10.24
2023-05-18T19:59:05.725Z,10.21
2023-05-18T20:01:35.251Z,10.21
2023-05-18T20:04:04.012Z,10.20
2023-05-18T20:06:33.910Z,10.20
2023-05-18T20:09:01.895Z,10.19
2023-05-18T20:11:56.250Z,10.21
2023-05-18T20:14:24.399Z,10.20
2023-05-18T20:16:52.859Z,10.20
2023-05-18T20:19:22.232Z,10.17
2023-05-18T20:21:51.185Z,10.14
2023-05-18T20:24:19.179Z,10.13
2023-05-18T20:26:47.236Z,10.13
2023-05-18T20:29:15.416Z,10.13
2023-05-18T20:31:43.324Z,10.12
2023-05-18T20:34:11.463Z,10.11
2023-05-18T20:36:39.365Z,10.12
2023-05-18T20:39:07.501Z,10.12
2023-05-18T20:41:40.022Z,10.12
2023-05-18T20:44:11.642Z,10.12
2023-05-18T20:46:42.540Z,10.13
2023-05-18T20:49:12.998Z,10.09
2023-05-18T20:51:41.052Z,10.08
2023-05-18T20:54:08.969Z,10.07
2023-05-18T20:56:37.076Z,10.06
2023-05-18T20:59:06.481Z,10.05
2023-05-18T21:01:39.310Z,10.05
2023-05-18T21:04:09.692Z,10.06
2023-05-18T21:06:41.000Z,10.06
2023-05-18T21:09:09.494Z,10.07
2023-05-18T21:11:37.614Z,10.08
2023-05-18T21:14:05.720Z,10.07
2023-05-18T21:16:34.382Z,10.06
2023-05-18T21:19:02.566Z,10.05
2023-05-18T21:21:31.881Z,10.03
2023-05-18T21:23:59.910Z,10.03
2023-05-18T21:26:28.294Z,10.03
2023-05-18T21:28:56.265Z,10.03
2023-05-18T21:31:25.149Z,10.02
2023-05-18T21:33:53.237Z,10.01
2023-05-18T21:36:34.438Z,10.01
2023-05-18T21:39:04.685Z,10.02
2023-05-18T21:41:35.375Z,10.02
2023-05-18T21:44:03.473Z,10.02
2023-05-18T21:46:31.637Z,10.01
2023-05-18T21:49:01.676Z,10.00
2023-05-18T21:51:31.998Z,9.98
2023-05-18T21:54:01.444Z,9.98
2023-05-18T21:56:29.995Z,9.98
2023-05-18T21:58:57.988Z,9.98
2023-05-18T22:01:26.441Z,9.99
2023-05-18T22:03:54.405Z,9.98
2023-05-18T22:06:22.810Z,9.98
2023-05-18T22:08:51.564Z,9.98
2023-05-18T22:11:20.216Z,9.98
2023-05-18T22:13:48.233Z,9.98
2023-05-18T22:16:16.382Z,9.98
2023-05-18T22:18:44.360Z,9.99
2023-05-18T22:21:12.342Z,9.99
2023-05-18T22:23:40.485Z,9.97
2023-05-18T22:26:08.445Z,9.97
2023-05-18T22:28:36.497Z,9.97
2023-05-18T22:31:04.737Z,9.97
2023-05-18T22:33:32.670Z,9.98
2023-05-18T22:36:01.048Z,9.98
2023-05-18T22:38:28.999Z,9.98
2023-05-18T22:40:57.064Z,9.98
2023-05-18T22:43:26.085Z,9.97
2023-05-18T22:45:54.110Z,9.99
2023-05-18T22:48:22.237Z,9.96
2023-05-18T22:50:50.438Z,9.96
2023-05-18T22:53:18.698Z,9.95
2023-05-18T22:55:47.146Z,9.94
2023-05-18T22:58:15.201Z,9.92
2023-05-18T23:00:43.143Z,9.91
2023-05-18T23:03:11.173Z,9.88
2023-05-18T23:05:41.319Z,9.85
2023-05-18T23:08:10.279Z,9.84
2023-05-18T23:10:38.352Z,9.83
2023-05-18T23:13:06.460Z,9.82
2023-05-18T23:15:34.433Z,9.79
2023-05-18T23:18:02.790Z,9.78
2023-05-18T23:20:34.574Z,9.77
2023-05-18T23:23:02.569Z,9.76
2023-05-18T23:25:30.804Z,9.75
2023-05-18T23:27:58.871Z,9.76
2023-05-18T23:30:27.125Z,9.75
2023-05-18T23:32:56.720Z,9.77
2023-05-18T23:35:25.496Z,9.77
2023-05-18T23:37:55.915Z,9.76
2023-05-18T23:40:24.886Z,9.77
2023-05-18T23:42:53.092Z,9.77
2023-05-18T23:45:22.086Z,9.76
2023-05-18T23:47:50.343Z,9.76
2023-05-18T23:50:18.701Z,9.73
2023-05-18T23:52:47.251Z,9.71
2023-05-18T23:55:15.628Z,9.70
2023-05-18T23:57:43.767Z,9.71
